createdAt,value
2017-04-23T00:00:11.248Z,1.83
2017-04-23T00:01:12.281Z,2.42
2017-04-23T00:02:14.182Z,2.10
2017-04-23T00:03:15.197Z,1.70
2017-04-23T00:04:16.420Z,2.03
2017-04-23T00:05:17.621Z,1.57
2017-04-23T00:06:18.798Z,1.67
2017-04-23T00:07:19.890Z,1.55
2017-04-23T00:08:21.060Z,1.48
2017-04-23T00:09:22.282Z,1.98
2017-04-23T00:10:23.519Z,2.03
2017-04-23T00:11:24.718Z,2.18
2017-04-23T00:12:25.992Z,2.60
2017-04-23T00:13:27.157Z,1.73
2017-04-23T00:14:28.348Z,2.10
2017-04-23T00:15:29.790Z,2.50
2017-04-23T00:16:31.042Z,2.02
2017-04-23T00:17:32.160Z,1.77
2017-04-23T00:18:33.275Z,1.63
2017-04-23T00:19:34.481Z,1.87
2017-04-23T00:20:35.804Z,2.15
2017-04-23T00:21:37.016Z,3.30
2017-04-23T00:22:38.208Z,2.20
2017-04-23T00:23:39.339Z,1.85
2017-04-23T00:24:40.404Z,2.18
2017-04-23T00:25:41.529Z,2.72
2017-04-23T00:26:42.535Z,2.08
2017-04-23T00:27:43.584Z,2.28
2017-04-23T00:28:44.623Z,2.20
2017-04-23T00:29:45.793Z,2.17
2017-04-23T00:30:47.329Z,2.47
2017-04-23T00:31:48.530Z,2.17
2017-04-23T00:32:49.436Z,2.00
2017-04-23T00:33:50.414Z,2.60
2017-04-23T00:34:51.453Z,2.55
2017-04-23T00:35:52.454Z,2.10
2017-04-23T00:36:53.583Z,2.20
2017-04-23T00:37:54.487Z,1.78
2017-04-23T00:38:55.644Z,2.00
2017-04-23T00:39:56.855Z,2.35
2017-04-23T00:40:57.881Z,1.80
2017-04-23T00:41:59.001Z,2.20
2017-04-23T00:43:00.266Z,1.62
2017-04-23T00:44:01.357Z,2.23
2017-04-23T00:45:02.351Z,2.15
2017-04-23T00:46:03.385Z,2.00
2017-04-23T00:47:04.291Z,2.42
2017-04-23T00:48:05.211Z,2.47
2017-04-23T00:49:06.144Z,2.93
2017-04-23T00:50:07.061Z,2.58
2017-04-23T00:51:08.142Z,2.25
2017-04-23T00:52:09.306Z,2.15
2017-04-23T00:53:10.467Z,2.20
2017-04-23T00:54:11.502Z,2.68
2017-04-23T00:55:12.631Z,2.77
2017-04-23T00:56:13.711Z,2.68
2017-04-23T00:57:15.003Z,2.68
2017-04-23T00:58:16.076Z,2.48
2017-04-23T00:59:17.293Z,2.30
2017-04-23T01:00:18.210Z,2.80
2017-04-23T01:01:19.266Z,2.63
2017-04-23T01:02:20.275Z,2.72
2017-04-23T01:03:21.549Z,2.30
2017-04-23T01:04:22.513Z,2.47
2017-04-23T01:05:23.704Z,2.27
2017-04-23T01:06:24.968Z,1.87
2017-04-23T01:07:26.033Z,2.25
2017-04-23T01:08:26.913Z,3.30
2017-04-23T01:09:28.169Z,2.15
2017-04-23T01:10:29.667Z,3.22
2017-04-23T01:11:30.804Z,2.87
2017-04-23T01:12:31.960Z,2.63
2017-04-23T01:13:32.929Z,2.58
2017-04-23T01:14:34.121Z,2.48
2017-04-23T01:15:35.380Z,3.10
2017-04-23T01:16:36.403Z,2.33
2017-04-23T01:17:37.726Z,3.08
2017-04-23T01:18:38.867Z,3.28
2017-04-23T01:19:39.927Z,2.82
2017-04-23T01:20:40.869Z,2.43
2017-04-23T01:21:41.789Z,2.38
2017-04-23T01:22:43.056Z,2.30
2017-04-23T01:23:44.221Z,2.90
2017-04-23T01:24:45.297Z,2.97
2017-04-23T01:25:46.445Z,3.02
2017-04-23T01:26:47.476Z,2.73
2017-04-23T01:27:48.700Z,3.10
2017-04-23T01:28:49.613Z,3.00
2017-04-23T01:29:50.684Z,3.02
2017-04-23T01:30:51.691Z,3.07
2017-04-23T01:31:52.619Z,4.10
2017-04-23T01:32:54.557Z,3.68
2017-04-23T01:33:55.491Z,3.45
2017-04-23T01:34:56.740Z,3.70
2017-04-23T01:35:57.853Z,3.65
2017-04-23T01:36:59.132Z,3.67
2017-04-23T01:38:00.269Z,3.85
2017-04-23T01:39:01.628Z,3.68
2017-04-23T01:40:02.620Z,3.43
2017-04-23T01:41:03.888Z,3.97
2017-04-23T01:42:05.075Z,3.62
2017-04-23T01:43:06.332Z,3.18
2017-04-23T01:44:07.554Z,3.82
2017-04-23T01:45:08.771Z,3.77
2017-04-23T01:46:09.893Z,4.20
2017-04-23T01:47:10.973Z,3.18
2017-04-23T01:48:12.572Z,4.75
2017-04-23T01:49:13.540Z,3.63
2017-04-23T01:50:14.765Z,3.72
2017-04-23T01:51:15.845Z,3.57
2017-04-23T01:52:17.094Z,3.77
2017-04-23T01:53:18.059Z,4.23
2017-04-23T01:54:19.232Z,4.55
2017-04-23T01:55:20.479Z,4.02
2017-04-23T01:56:21.475Z,3.57
2017-04-23T01:57:22.614Z,3.50
2017-04-23T01:58:23.820Z,4.23
2017-04-23T01:59:24.955Z,3.85
2017-04-23T02:00:25.933Z,3.53
2017-04-23T02:01:27.015Z,3.40
2017-04-23T02:02:28.072Z,4.07
2017-04-23T02:03:29.083Z,4.33
2017-04-23T02:04:30.050Z,3.27
2017-04-23T02:05:31.262Z,3.28
2017-04-23T02:06:32.220Z,3.90
2017-04-23T02:07:33.275Z,2.80
2017-04-23T02:08:34.379Z,2.50
2017-04-23T02:09:35.656Z,3.37
2017-04-23T02:10:37.470Z,3.37
2017-04-23T02:11:38.500Z,3.32
2017-04-23T02:12:39.456Z,3.48
2017-04-23T02:13:40.560Z,2.95
2017-04-23T02:14:41.592Z,2.98
2017-04-23T02:15:42.628Z,3.35
2017-04-23T02:16:43.597Z,3.27
2017-04-23T02:17:44.672Z,3.07
2017-04-23T02:18:45.665Z,2.85
2017-04-23T02:19:46.787Z,3.03
2017-04-23T02:20:47.893Z,3.23
2017-04-23T02:21:48.964Z,3.42
2017-04-23T02:22:49.976Z,2.63
2017-04-23T02:23:51.450Z,4.03
2017-04-23T02:24:52.816Z,2.98
2017-04-23T02:25:54.055Z,2.98
2017-04-23T02:26:55.628Z,2.73
2017-04-23T02:27:56.621Z,3.18
2017-04-23T02:28:57.556Z,2.85
2017-04-23T02:29:58.531Z,3.63
2017-04-23T02:30:59.548Z,3.22
2017-04-23T02:32:00.562Z,2.83
2017-04-23T02:33:01.897Z,2.80
2017-04-23T02:34:02.942Z,2.87
2017-04-23T02:35:04.336Z,2.97
2017-04-23T02:36:06.001Z,3.47
2017-04-23T02:37:06.996Z,2.60
2017-04-23T02:38:08.116Z,3.12
2017-04-23T02:39:09.045Z,2.83
2017-04-23T02:40:10.155Z,3.12
2017-04-23T02:41:11.214Z,3.08
2017-04-23T02:42:12.531Z,2.82
2017-04-23T02:43:14.109Z,3.20
2017-04-23T02:44:15.292Z,2.50
2017-04-23T02:45:16.252Z,2.43
2017-04-23T02:46:17.454Z,2.95
2017-04-23T02:47:18.488Z,3.07
2017-04-23T02:48:19.701Z,2.70
2017-04-23T02:49:20.618Z,3.28
2017-04-23T02:50:22.143Z,3.02
2017-04-23T02:51:23.180Z,2.70
2017-04-23T02:52:24.299Z,2.67
2017-04-23T02:53:25.207Z,2.75
2017-04-23T02:54:26.382Z,3.30
2017-04-23T02:55:27.737Z,2.95
2017-04-23T02:56:29.298Z,2.63
2017-04-23T02:57:30.634Z,2.50
2017-04-23T02:58:32.420Z,3.00
2017-04-23T02:59:33.337Z,2.65
2017-04-23T03:00:34.486Z,3.00
2017-04-23T03:01:35.722Z,3.18
2017-04-23T03:02:36.685Z,2.95
2017-04-23T03:03:37.860Z,2.52
2017-04-23T03:04:38.922Z,2.92
2017-04-23T03:05:39.980Z,2.95
2017-04-23T03:06:40.869Z,2.57
2017-04-23T03:07:41.869Z,2.38
2017-04-23T03:08:42.755Z,2.53
2017-04-23T03:09:43.749Z,2.30
2017-04-23T03:10:44.690Z,3.97
2017-04-23T03:11:45.634Z,2.55
2017-04-23T03:12:46.793Z,2.50
2017-04-23T03:13:47.654Z,2.85
2017-04-23T03:14:48.814Z,2.80
2017-04-23T03:15:49.662Z,2.90
2017-04-23T03:16:50.564Z,2.72
2017-04-23T03:17:55.653Z,2.60
2017-04-23T03:18:56.731Z,2.35
2017-04-23T03:19:57.840Z,2.48
2017-04-23T03:20:58.716Z,2.55
2017-04-23T03:21:59.920Z,2.77
2017-04-23T03:23:00.901Z,2.30
2017-04-23T03:24:02.431Z,2.23
2017-04-23T03:25:03.661Z,2.03
2017-04-23T03:26:04.796Z,2.48
2017-04-23T03:27:05.900Z,2.08
2017-04-23T03:28:06.791Z,2.47
2017-04-23T03:29:07.934Z,2.32
2017-04-23T03:30:08.991Z,2.07
2017-04-23T03:31:10.125Z,2.60
2017-04-23T03:32:11.175Z,1.83
2017-04-23T03:33:12.230Z,2.70
2017-04-23T03:34:13.143Z,2.02
2017-04-23T03:35:14.298Z,2.32
2017-04-23T03:36:15.405Z,2.27
2017-04-23T03:37:16.808Z,2.23
2017-04-23T03:38:17.903Z,2.55
2017-04-23T03:39:19.062Z,2.63
2017-04-23T03:40:20.057Z,2.02
2017-04-23T03:41:21.309Z,2.38
2017-04-23T03:42:22.603Z,1.90
2017-04-23T03:43:23.699Z,2.40
2017-04-23T03:44:24.820Z,2.52
2017-04-23T03:45:25.928Z,2.48
2017-04-23T03:46:26.823Z,2.55
2017-04-23T03:47:27.992Z,2.53
2017-04-23T03:48:29.081Z,2.57
2017-04-23T03:49:30.471Z,2.25
2017-04-23T03:50:31.594Z,2.20
2017-04-23T03:51:32.531Z,2.37
2017-04-23T03:52:33.638Z,1.92
2017-04-23T03:53:34.840Z,2.67
2017-04-23T03:54:35.824Z,2.65
2017-04-23T03:55:37.202Z,2.37
2017-04-23T03:56:38.480Z,2.57
2017-04-23T03:57:39.580Z,2.62
2017-04-23T03:58:40.732Z,2.37
2017-04-23T03:59:42.016Z,2.52
2017-04-23T04:00:42.980Z,2.35
2017-04-23T04:01:43.941Z,3.03
2017-04-23T04:02:45.072Z,2.30
2017-04-23T04:03:46.678Z,2.35
2017-04-23T04:04:47.876Z,2.20
2017-04-23T04:05:49.008Z,2.60
2017-04-23T04:06:49.985Z,3.07
2017-04-23T04:07:51.079Z,3.13
2017-04-23T04:08:52.241Z,2.75
2017-04-23T04:09:53.560Z,2.63
2017-04-23T04:10:55.034Z,2.38
2017-04-23T04:11:56.293Z,2.38
2017-04-23T04:12:57.440Z,2.83
2017-04-23T04:13:58.361Z,2.72
2017-04-23T04:14:59.436Z,2.73
2017-04-23T04:16:00.799Z,3.02
2017-04-23T04:17:03.178Z,2.50
2017-04-23T04:18:04.097Z,2.70
2017-04-23T04:19:05.228Z,2.75
2017-04-23T04:20:06.299Z,2.55
2017-04-23T04:21:07.513Z,2.88
2017-04-23T04:22:08.587Z,2.52
2017-04-23T04:23:09.477Z,2.68
2017-04-23T04:24:10.541Z,2.35
2017-04-23T04:25:11.657Z,2.42
2017-04-23T04:26:12.814Z,2.70
2017-04-23T04:27:13.855Z,2.60
2017-04-23T04:28:15.017Z,2.35
2017-04-23T04:29:16.548Z,2.35
2017-04-23T04:30:17.728Z,2.43
2017-04-23T04:31:18.852Z,2.50
2017-04-23T04:32:19.991Z,2.18
2017-04-23T04:33:21.037Z,2.50
2017-04-23T04:34:22.080Z,2.47
2017-04-23T04:35:23.211Z,2.50
2017-04-23T04:36:24.288Z,2.97
2017-04-23T04:37:25.382Z,2.65
2017-04-23T04:38:26.525Z,2.02
2017-04-23T04:39:27.684Z,2.40
2017-04-23T04:40:28.789Z,2.00
2017-04-23T04:41:30.071Z,2.52
2017-04-23T04:42:32.153Z,2.48
2017-04-23T04:43:33.221Z,2.22
2017-04-23T04:44:34.362Z,2.10
2017-04-23T04:45:35.466Z,2.60
2017-04-23T04:46:36.733Z,2.65
2017-04-23T04:47:37.705Z,2.43
2017-04-23T04:48:38.999Z,2.18
2017-04-23T04:49:40.087Z,2.67
2017-04-23T04:50:41.235Z,2.73
2017-04-23T04:51:42.360Z,2.33
2017-04-23T04:52:43.276Z,2.35
2017-04-23T04:53:44.258Z,2.68
2017-04-23T04:54:45.169Z,2.08
2017-04-23T04:55:46.431Z,2.23
2017-04-23T04:56:47.548Z,2.43
2017-04-23T04:57:48.817Z,2.67
2017-04-23T04:58:49.853Z,2.80
2017-04-23T04:59:50.954Z,2.75
2017-04-23T05:00:51.998Z,1.97
2017-04-23T05:01:53.069Z,2.18
2017-04-23T05:02:54.396Z,2.47
2017-04-23T05:03:55.652Z,2.53
2017-04-23T05:04:56.931Z,2.10
2017-04-23T05:05:58.079Z,2.03
2017-04-23T05:06:58.931Z,2.62
2017-04-23T05:08:00.466Z,2.67
2017-04-23T05:09:01.676Z,2.22
2017-04-23T05:10:02.749Z,2.28
2017-04-23T05:11:04.644Z,2.22
2017-04-23T05:12:05.718Z,2.88
2017-04-23T05:13:06.750Z,2.33
2017-04-23T05:14:07.884Z,2.45
2017-04-23T05:15:08.926Z,3.37
2017-04-23T05:16:10.107Z,2.08
2017-04-23T05:17:11.152Z,3.03
2017-04-23T05:18:12.182Z,2.53
2017-04-23T05:19:13.291Z,2.82
2017-04-23T05:20:14.368Z,2.08
2017-04-23T05:21:15.403Z,2.48
2017-04-23T05:22:16.534Z,2.80
2017-04-23T05:23:17.575Z,2.70
2017-04-23T05:24:18.800Z,2.48
2017-04-23T05:25:19.831Z,2.27
2017-04-23T05:26:20.972Z,2.95
2017-04-23T05:27:22.008Z,2.28
2017-04-23T05:28:23.108Z,2.13
2017-04-23T05:29:24.352Z,2.22
2017-04-23T05:30:25.432Z,1.80
2017-04-23T05:31:26.600Z,2.13
2017-04-23T05:32:27.690Z,2.38
2017-04-23T05:33:28.789Z,2.80
2017-04-23T05:34:29.912Z,2.02
2017-04-23T05:35:31.039Z,2.05
2017-04-23T05:36:32.132Z,1.92
2017-04-23T05:37:33.361Z,2.47
2017-04-23T05:38:34.507Z,2.58
2017-04-23T05:39:35.789Z,3.03
2017-04-23T05:40:36.968Z,2.30
2017-04-23T05:41:38.113Z,1.93
2017-04-23T05:42:39.161Z,2.02
2017-04-23T05:43:40.332Z,2.37
2017-04-23T05:44:41.460Z,2.35
2017-04-23T05:45:42.744Z,2.03
2017-04-23T05:46:43.954Z,2.33
2017-04-23T05:47:44.992Z,2.47
2017-04-23T05:48:46.313Z,2.12
2017-04-23T05:49:47.601Z,2.35
2017-04-23T05:50:48.579Z,2.17
2017-04-23T05:51:49.876Z,2.55
2017-04-23T05:52:51.302Z,2.72
2017-04-23T05:54:03.612Z,2.40
2017-04-23T05:55:07.937Z,2.53
2017-04-23T05:56:09.132Z,2.50
2017-04-23T05:57:10.479Z,2.10
2017-04-23T05:58:11.604Z,2.40
2017-04-23T05:59:13.602Z,2.07
2017-04-23T06:00:14.875Z,2.15
2017-04-23T06:01:16.278Z,2.20
2017-04-23T06:02:17.571Z,2.37
2017-04-23T06:03:18.626Z,2.70
2017-04-23T06:04:19.873Z,2.37
2017-04-23T06:05:21.208Z,1.78
2017-04-23T06:06:22.448Z,1.88
2017-04-23T06:07:24.632Z,2.08
2017-04-23T06:08:25.764Z,2.03
2017-04-23T06:09:26.956Z,2.37
2017-04-23T06:10:29.014Z,2.20
2017-04-23T06:11:30.221Z,3.07
2017-04-23T06:12:31.752Z,1.88
2017-04-23T06:13:32.949Z,2.05
2017-04-23T06:14:34.164Z,1.72
2017-04-23T06:15:35.459Z,2.12
2017-04-23T06:16:36.576Z,2.20
2017-04-23T06:17:37.884Z,1.83
2017-04-23T06:18:39.225Z,1.70
2017-04-23T06:19:40.627Z,1.95
2017-04-23T06:20:42.011Z,1.83
2017-04-23T06:21:43.788Z,1.97
2017-04-23T06:22:46.357Z,1.80
2017-04-23T06:23:47.605Z,2.17
2017-04-23T06:24:49.063Z,1.87
2017-04-23T06:25:50.136Z,1.85
2017-04-23T06:26:57.147Z,1.43
2017-04-23T06:27:59.725Z,1.53
2017-04-23T06:29:01.549Z,2.35
2017-04-23T06:30:03.071Z,1.85
2017-04-23T06:31:04.263Z,2.25
2017-04-23T06:32:05.933Z,1.88
2017-04-23T06:33:07.318Z,1.60
2017-04-23T06:34:08.798Z,1.77
2017-04-23T06:35:09.850Z,2.50
2017-04-23T06:36:11.029Z,2.28
2017-04-23T06:37:15.087Z,1.80
2017-04-23T06:38:20.729Z,2.03
2017-04-23T06:39:24.248Z,1.75
2017-04-23T06:40:26.297Z,1.95
2017-04-23T06:41:27.440Z,2.13
2017-04-23T06:42:28.589Z,3.05
2017-04-23T06:43:29.652Z,2.08
2017-04-23T06:44:31.010Z,2.08
2017-04-23T06:45:32.164Z,1.80
2017-04-23T06:46:33.126Z,1.48
2017-04-23T06:47:34.259Z,1.62
2017-04-23T06:48:35.200Z,1.98
2017-04-23T06:49:49.412Z,1.57
2017-04-23T06:50:53.584Z,1.80
2017-04-23T06:51:54.767Z,1.40
2017-04-23T06:53:05.552Z,2.03
2017-04-23T06:54:08.213Z,2.13
2017-04-23T06:55:09.624Z,2.05
2017-04-23T06:56:11.811Z,2.20
2017-04-23T06:57:13.840Z,2.82
2017-04-23T06:58:15.227Z,3.55
2017-04-23T06:59:16.979Z,3.47
2017-04-23T07:00:18.702Z,3.72
2017-04-23T07:01:19.760Z,4.03
2017-04-23T07:02:21.675Z,5.00
2017-04-23T07:03:27.033Z,5.47
2017-04-23T07:04:29.583Z,4.27
2017-04-23T07:05:30.714Z,5.42
2017-04-23T07:06:31.849Z,4.95
2017-04-23T07:07:33.031Z,4.60
2017-04-23T07:08:34.448Z,4.40
2017-04-23T07:09:35.682Z,3.25
2017-04-23T07:10:37.732Z,3.05
2017-04-23T07:11:38.919Z,3.20
2017-04-23T07:12:40.101Z,3.17
2017-04-23T07:13:41.307Z,2.75
2017-04-23T07:14:42.630Z,2.42
2017-04-23T07:15:43.771Z,2.30
2017-04-23T07:16:45.034Z,2.83
2017-04-23T07:17:46.285Z,2.22
2017-04-23T07:18:48.212Z,2.52
2017-04-23T07:19:49.359Z,1.97
2017-04-23T07:20:50.480Z,1.88
2017-04-23T07:21:51.632Z,1.80
2017-04-23T07:22:52.844Z,1.60
2017-04-23T07:23:54.053Z,1.63
2017-04-23T07:24:55.542Z,1.95
2017-04-23T07:25:56.852Z,1.72
2017-04-23T07:26:58.006Z,1.75
2017-04-23T07:27:59.184Z,1.70
2017-04-23T07:29:03.577Z,1.70
2017-04-23T07:30:04.703Z,1.75
2017-04-23T07:31:05.858Z,1.60
2017-04-23T07:32:07.079Z,1.90
2017-04-23T07:33:08.269Z,1.40
2017-04-23T07:34:16.081Z,1.43
2017-04-23T07:35:19.793Z,1.78
2017-04-23T07:36:21.144Z,1.93
2017-04-23T07:37:23.316Z,1.50
2017-04-23T07:38:24.976Z,1.80
2017-04-23T07:39:27.813Z,1.62
2017-04-23T07:40:34.669Z,1.57
2017-04-23T07:41:36.576Z,1.63
2017-04-23T07:42:38.282Z,1.63
2017-04-23T07:43:40.011Z,1.55
2017-04-23T07:44:41.420Z,1.95
2017-04-23T07:45:45.029Z,1.68
2017-04-23T07:46:46.972Z,1.97
2017-04-23T07:47:49.212Z,1.45
2017-04-23T07:48:50.546Z,1.72
2017-04-23T07:49:52.401Z,1.87
2017-04-23T07:50:53.854Z,1.48
2017-04-23T07:51:55.569Z,2.07
2017-04-23T07:52:57.603Z,2.00
2017-04-23T07:53:58.912Z,2.20
2017-04-23T07:55:00.534Z,1.73
2017-04-23T07:56:05.047Z,1.62
2017-04-23T07:57:07.878Z,1.70
2017-04-23T07:58:14.119Z,1.68
2017-04-23T07:59:21.485Z,1.25
2017-04-23T08:00:24.419Z,1.90
2017-04-23T08:01:27.536Z,1.63
2017-04-23T08:02:29.900Z,1.73
2017-04-23T08:03:34.968Z,1.60
2017-04-23T08:04:40.632Z,1.72
2017-04-23T08:05:42.515Z,1.55
2017-04-23T08:06:45.081Z,1.73
2017-04-23T08:07:46.535Z,1.67
2017-04-23T08:08:53.652Z,2.20
2017-04-23T08:09:56.215Z,1.60
2017-04-23T08:11:01.027Z,1.93
2017-04-23T08:12:05.697Z,2.17
2017-04-23T08:13:09.363Z,2.08
2017-04-23T08:14:12.089Z,2.25
2017-04-23T08:15:16.532Z,2.35
2017-04-23T08:16:19.107Z,2.03
2017-04-23T08:17:20.961Z,2.60
2017-04-23T08:18:23.861Z,2.13
2017-04-23T08:19:24.967Z,2.30
2017-04-23T08:20:26.099Z,1.88
2017-04-23T08:21:28.088Z,2.45
2017-04-23T08:22:31.915Z,1.67
2017-04-23T08:23:35.275Z,1.60
2017-04-23T08:24:38.464Z,1.90
2017-04-23T08:25:42.451Z,2.03
2017-04-23T08:26:46.439Z,1.92
2017-04-23T08:27:51.057Z,2.12
2017-04-23T08:28:56.197Z,2.93
2017-04-23T08:30:00.030Z,2.18
2017-04-23T08:31:03.111Z,2.12
2017-04-23T08:32:06.996Z,2.38
2017-04-23T08:33:10.548Z,1.87
2017-04-23T08:34:12.114Z,1.95
2017-04-23T08:35:17.564Z,2.22
2017-04-23T08:36:22.565Z,2.43
2017-04-23T08:37:27.886Z,2.02
2017-04-23T08:38:35.505Z,2.48
2017-04-23T08:39:39.489Z,2.53
2017-04-23T08:40:44.281Z,3.67
2017-04-23T08:41:47.196Z,2.62
2017-04-23T08:42:52.777Z,2.68
2017-04-23T08:43:56.866Z,2.57
2017-04-23T08:44:59.948Z,2.70
2017-04-23T08:46:03.231Z,2.58
2017-04-23T08:47:06.759Z,2.28
2017-04-23T08:48:11.045Z,2.30
2017-04-23T08:49:16.897Z,2.65
2017-04-23T08:50:20.718Z,2.88
2017-04-23T08:51:27.298Z,2.88
2017-04-23T08:52:31.674Z,3.28
2017-04-23T08:53:32.848Z,2.17
2017-04-23T08:54:34.439Z,2.20
2017-04-23T08:55:35.855Z,2.80
2017-04-23T08:56:39.451Z,2.18
2017-04-23T08:57:42.388Z,2.87
2017-04-23T08:58:46.037Z,2.52
2017-04-23T08:59:51.787Z,2.85
2017-04-23T09:00:57.383Z,2.43
2017-04-23T09:02:03.272Z,2.37
2017-04-23T09:03:05.014Z,2.13
2017-04-23T09:04:10.979Z,2.62
2017-04-23T09:05:15.647Z,2.48
2017-04-23T09:06:20.482Z,1.85
2017-04-23T09:07:22.755Z,2.10
2017-04-23T09:08:26.655Z,1.70
2017-04-23T09:09:32.792Z,1.63
2017-04-23T09:10:36.833Z,1.63
2017-04-23T09:11:39.390Z,1.93
2017-04-23T09:12:44.296Z,1.85
2017-04-23T09:13:47.205Z,1.98
2017-04-23T09:14:51.133Z,1.85
2017-04-23T09:15:54.171Z,1.72
2017-04-23T09:16:59.683Z,1.62
2017-04-23T09:18:02.969Z,1.60
2017-04-23T09:19:10.150Z,1.87
2017-04-23T09:20:15.094Z,1.45
2017-04-23T09:21:20.624Z,1.45
2017-04-23T09:22:23.462Z,1.35
2017-04-23T09:23:28.808Z,1.50
2017-04-23T09:24:32.145Z,1.50
2017-04-23T09:25:36.266Z,1.50
2017-04-23T09:26:38.517Z,1.35
2017-04-23T09:27:44.789Z,1.60
2017-04-23T09:28:49.162Z,1.38
2017-04-23T09:29:55.044Z,1.75
2017-04-23T09:31:01.639Z,1.35
2017-04-23T09:32:04.980Z,1.58
2017-04-23T09:33:07.149Z,2.02
2017-04-23T09:34:08.268Z,1.68
2017-04-23T09:35:09.655Z,1.53
2017-04-23T09:36:14.760Z,1.85
2017-04-23T09:37:17.237Z,1.65
2017-04-23T09:38:19.419Z,1.17
2017-04-23T09:39:22.720Z,1.73
2017-04-23T09:40:27.751Z,1.25
2017-04-23T09:41:32.200Z,1.75
2017-04-23T09:42:35.069Z,1.68
2017-04-23T09:43:39.826Z,1.62
2017-04-23T09:44:43.299Z,1.77
2017-04-23T09:45:47.658Z,2.08
2017-04-23T09:46:52.779Z,1.73
2017-04-23T09:47:57.341Z,1.70
2017-04-23T09:49:01.457Z,1.47
2017-04-23T09:50:05.151Z,1.63
2017-04-23T10:06:22.129Z,1.40
2017-04-23T10:07:25.644Z,1.27
2017-04-23T10:08:28.177Z,0.63
2017-04-23T10:09:30.031Z,1.17
2017-04-23T10:10:35.058Z,0.70
2017-04-23T10:11:39.115Z,1.08
2017-04-23T10:12:44.447Z,0.85
2017-04-23T10:13:49.097Z,1.20
2017-04-23T10:14:53.352Z,1.55
2017-04-23T10:15:55.723Z,1.20
2017-04-23T10:16:56.892Z,1.47
2017-04-23T10:18:00.428Z,1.48
2017-04-23T10:19:03.883Z,1.82
2017-04-23T10:20:05.908Z,1.62
2017-04-23T10:21:08.447Z,1.50
2017-04-23T10:22:11.713Z,1.42
2017-04-23T10:23:14.847Z,1.43
2017-04-23T10:24:19.848Z,1.77
2017-04-23T10:25:22.285Z,1.60
2017-04-23T10:26:26.117Z,1.63
2017-04-23T10:27:31.047Z,2.17
2017-04-23T10:28:34.413Z,1.68
2017-04-23T10:29:39.514Z,1.57
2017-04-23T10:30:42.577Z,1.58
2017-04-23T10:31:47.613Z,1.35
2017-04-23T10:32:52.874Z,1.08
2017-04-23T10:33:58.604Z,1.17
2017-04-23T10:35:01.936Z,1.50
2017-04-23T10:36:07.960Z,1.27
2017-04-23T10:37:13.977Z,1.42
2017-04-23T10:38:18.415Z,1.33
2017-04-23T10:39:22.585Z,1.67
2017-04-23T10:40:26.891Z,1.45
2017-04-23T10:41:30.347Z,1.32
2017-04-23T10:42:34.454Z,1.60
2017-04-23T10:43:44.540Z,1.53
2017-04-23T10:44:48.342Z,1.53
2017-04-23T10:45:52.700Z,1.45
2017-04-23T10:46:54.616Z,1.35
2017-04-23T10:47:57.924Z,0.92
2017-04-23T10:48:59.330Z,1.20
2017-04-23T10:50:00.770Z,1.27
2017-04-23T10:51:01.976Z,1.28
2017-04-23T10:52:03.138Z,1.30
2017-04-23T10:53:04.393Z,1.42
2017-04-23T10:54:05.375Z,1.73
2017-04-23T10:55:06.822Z,1.38
2017-04-23T10:56:08.489Z,1.30
2017-04-23T10:57:09.613Z,1.33
2017-04-23T10:58:10.836Z,1.38
2017-04-23T10:59:11.773Z,1.40
2017-04-23T11:00:12.704Z,1.37
2017-04-23T11:01:13.736Z,1.87
2017-04-23T11:02:14.884Z,0.92
2017-04-23T11:03:16.379Z,1.65
2017-04-23T11:04:17.553Z,1.05
2017-04-23T11:05:18.687Z,1.30
2017-04-23T11:06:19.776Z,1.23
2017-04-23T11:07:21.143Z,1.05
2017-04-23T11:08:22.291Z,1.47
2017-04-23T11:09:23.464Z,1.45
2017-04-23T11:10:25.103Z,1.10
2017-04-23T11:11:26.269Z,2.45
2017-04-23T11:12:27.424Z,1.22
2017-04-23T11:13:28.343Z,1.00
2017-04-23T11:14:29.560Z,1.23
2017-04-23T11:15:30.722Z,1.30
2017-04-23T11:16:45.862Z,1.33
2017-04-23T11:17:50.984Z,1.38
2017-04-23T11:18:52.303Z,1.30
2017-04-23T11:19:53.454Z,1.67
2017-04-23T11:20:54.805Z,1.35
2017-04-23T11:21:56.001Z,1.33
2017-04-23T11:22:57.413Z,1.25
2017-04-23T11:23:58.679Z,1.02
2017-04-23T11:25:00.151Z,1.42
2017-04-23T11:26:01.375Z,1.35
2017-04-23T11:27:02.671Z,1.28
2017-04-23T11:28:03.845Z,1.32
2017-04-23T11:29:04.877Z,1.27
2017-04-23T11:30:06.884Z,0.98
2017-04-23T11:31:08.107Z,1.32
2017-04-23T11:32:09.459Z,1.08
2017-04-23T11:33:10.884Z,1.32
2017-04-23T11:34:12.489Z,0.98
2017-04-23T11:35:13.592Z,1.45
2017-04-23T11:36:14.790Z,1.40
2017-04-23T11:37:16.307Z,1.37
2017-04-23T11:38:17.754Z,1.63
2017-04-23T11:39:18.803Z,1.53
2017-04-23T11:40:20.100Z,1.58
2017-04-23T11:41:21.336Z,1.18
2017-04-23T11:42:22.489Z,1.65
2017-04-23T11:43:23.644Z,1.83
2017-04-23T11:44:24.899Z,1.75
2017-04-23T11:45:26.224Z,1.77
2017-04-23T11:46:27.647Z,2.83
2017-04-23T11:47:29.004Z,1.88
2017-04-23T11:48:30.049Z,1.72
2017-04-23T11:49:31.571Z,1.82
2017-04-23T11:50:33.032Z,1.37
2017-04-23T11:51:34.404Z,1.52
2017-04-23T11:52:35.769Z,1.63
2017-04-23T11:53:39.745Z,1.72
2017-04-23T11:54:41.107Z,1.35
2017-04-23T11:55:42.333Z,1.68
2017-04-23T11:56:43.525Z,1.42
2017-04-23T11:57:44.751Z,1.67
2017-04-23T11:58:45.952Z,2.00
2017-04-23T11:59:47.385Z,1.80
2017-04-23T12:00:48.654Z,1.40
2017-04-23T12:01:49.894Z,1.32
2017-04-23T12:02:50.897Z,1.85
2017-04-23T12:03:52.090Z,1.82
2017-04-23T12:04:53.346Z,1.28
2017-04-23T12:05:54.771Z,1.50
2017-04-23T12:06:56.325Z,0.98
2017-04-23T12:07:57.518Z,1.50
2017-04-23T12:08:58.777Z,1.78
2017-04-23T12:10:00.076Z,1.43
2017-04-23T12:11:01.623Z,1.85
2017-04-23T12:12:02.983Z,1.22
2017-04-23T12:13:03.959Z,1.33
2017-04-23T12:14:05.112Z,1.57
2017-04-23T12:15:06.357Z,2.00
2017-04-23T12:16:07.637Z,1.32
2017-04-23T12:17:08.820Z,1.30
2017-04-23T12:18:10.143Z,1.07
2017-04-23T12:19:11.186Z,1.43
2017-04-23T12:20:12.383Z,1.22
2017-04-23T12:21:13.869Z,1.53
2017-04-23T12:22:15.059Z,1.28
2017-04-23T12:23:16.411Z,1.13
2017-04-23T12:24:17.826Z,1.43
2017-04-23T12:25:19.043Z,1.57
2017-04-23T12:26:20.189Z,1.28
2017-04-23T12:27:21.426Z,1.70
2017-04-23T12:28:22.600Z,1.67
2017-04-23T12:29:23.701Z,1.27
2017-04-23T12:30:24.851Z,1.33
2017-04-23T12:31:26.041Z,1.30
2017-04-23T12:32:27.236Z,1.58
2017-04-23T12:33:28.615Z,1.33
2017-04-23T12:34:29.935Z,1.73
2017-04-23T12:35:31.232Z,1.78
2017-04-23T12:36:32.178Z,1.43
2017-04-23T12:37:33.330Z,1.20
2017-04-23T12:38:34.517Z,1.70
2017-04-23T12:39:35.733Z,1.97
2017-04-23T12:40:36.964Z,1.50
2017-04-23T12:41:38.321Z,1.55
2017-04-23T12:42:39.531Z,1.27
2017-04-23T12:43:40.730Z,1.48
2017-04-23T12:44:41.952Z,1.35
2017-04-23T12:45:43.110Z,1.20
2017-04-23T12:46:44.548Z,1.22
2017-04-23T12:47:46.474Z,1.03
2017-04-23T12:48:47.647Z,1.43
2017-04-23T12:49:49.011Z,1.40
2017-04-23T12:50:50.175Z,1.45
2017-04-23T12:51:51.632Z,1.42
2017-04-23T12:52:52.916Z,1.27
2017-04-23T12:53:54.109Z,1.40
2017-04-23T12:54:55.392Z,1.43
2017-04-23T12:55:56.696Z,1.40
2017-04-23T12:56:58.028Z,1.83
2017-04-23T12:57:59.240Z,1.40
2017-04-23T12:59:00.607Z,1.67
2017-04-23T13:00:02.038Z,1.85
2017-04-23T13:01:03.381Z,1.35
2017-04-23T13:02:05.300Z,1.33
2017-04-23T13:03:06.337Z,1.57
2017-04-23T13:04:07.780Z,1.33
2017-04-23T13:05:09.837Z,1.15
2017-04-23T13:06:10.969Z,1.52
2017-04-23T13:07:12.416Z,1.13
2017-04-23T13:08:13.562Z,1.42
2017-04-23T13:09:15.001Z,1.10
2017-04-23T13:10:17.241Z,1.17
2017-04-23T13:11:18.407Z,1.32
2017-04-23T13:12:19.740Z,1.43
2017-04-23T13:13:21.029Z,1.43
2017-04-23T13:14:22.659Z,1.48
2017-04-23T13:15:23.802Z,1.25
2017-04-23T13:16:25.296Z,1.38
2017-04-23T13:17:26.920Z,1.03
2017-04-23T13:18:28.065Z,1.52
2017-04-23T13:19:29.333Z,1.15
2017-04-23T13:20:30.706Z,0.93
2017-04-23T13:21:31.961Z,1.20
2017-04-23T13:22:33.213Z,1.05
2017-04-23T13:23:34.530Z,1.22
2017-04-23T13:24:36.142Z,1.05
2017-04-23T13:25:37.603Z,1.30
2017-04-23T13:26:38.775Z,1.23
2017-04-23T13:27:40.231Z,1.32
2017-04-23T13:28:41.465Z,1.33
2017-04-23T13:29:42.787Z,1.25
2017-04-23T13:30:44.040Z,1.10
2017-04-23T13:31:45.347Z,1.23
2017-04-23T13:32:46.911Z,1.12
2017-04-23T13:33:48.091Z,1.40
2017-04-23T13:34:49.264Z,1.92
2017-04-23T13:35:50.566Z,1.15
2017-04-23T13:36:52.447Z,1.30
2017-04-23T13:37:53.662Z,1.77
2017-04-23T13:38:55.519Z,1.17
2017-04-23T13:39:56.855Z,1.15
2017-04-23T13:40:58.092Z,2.17
2017-04-23T13:41:59.258Z,1.80
2017-04-23T13:43:01.145Z,1.25
2017-04-23T13:44:02.488Z,1.60
2017-04-23T13:45:03.706Z,1.10
2017-04-23T13:46:05.621Z,1.38
2017-04-23T13:47:06.926Z,1.25
2017-04-23T13:48:08.346Z,1.50
2017-04-23T13:49:09.580Z,1.77
2017-04-23T13:50:10.765Z,1.75
2017-04-23T13:51:11.996Z,1.30
2017-04-23T13:52:13.256Z,1.48
2017-04-23T13:53:14.420Z,1.27
2017-04-23T13:54:15.724Z,1.42
2017-04-23T13:55:16.949Z,1.23
2017-04-23T13:56:18.202Z,1.33
2017-04-23T13:57:19.958Z,1.28
2017-04-23T13:58:21.793Z,1.15